Urbandale, IA (50323)

2:42 PM CST on February 22, 2018 (GMT -0600)
Bristol Cove | | Change Station
Active Advisory: Winter Weather Advisory

Elev 989 ft 41.62 °N, 93.81 °W | Updated 12 seconds ago

Ice Pellets
Ice Pellets
31.1 °F
Feels Like 27 °F
N
4.0
Wind Variable Wind from SE
Gusts 4.9 mph

Today
High -- | Low -- °F
--% Chance of Precip.
Yesterday
High -- | Low -- °F
Precip. -- in
Pressure 30.34 in
Visibility 2.0 miles
Clouds Overcast 400 ft
Windchill 27 °F
Dew Point 19 °F
Humidity 61%
Rainfall 0.00 in
Snow Depth Not available.
7:00 AM 5:57 PM
Waxing Crescent, 45% visible
SPECI KDSM 222020Z 14006KT 2SM -FZDZ BR OVC004 M01/M02 A3034 RMK AO2 P0000 I1002 T10061017
Pressure 30.34 in
Visibility 2.0 miles
Clouds Overcast 400 ft
Windchill 27 °F
Dew Point 19 °F
Humidity 61%
Rainfall 0.00 in
Snow Depth Not available.
7:00 AM 5:57 PM
Waxing Crescent, 45% visible
SPECI KDSM 222020Z 14006KT 2SM -FZDZ BR OVC004 M01/M02 A3034 RMK AO2 P0000 I1002 T10061017

Get Your Daily Forecast Email!

Thanks for signing up!

Be on the lookout for a verification email in your inbox.

You'll start receiving severe weather alerts in your inbox..

×

10-Day Weather Forecast

Almanac

Astronomy

Feb. 22, 2018 Rise Set
Actual Time
Civil Twilight
Nautical Twilight
Astronomical Twilight
Moon
Length of Visible Light
Length of Day
Tomorrow will be .
, % of the Moon is Illuminated

Today's Extremes

State Highs State Lows

Community

WunderPhotos

Category 6

Welcome to Category 6. This is the collective home for Weather Underground's featured writeups by Dr. Jeff Masters (right), Bob Henson (left), Chris Burt, and other regular contributors.

Nearby

Air Quality

  Air Quality AQ Index Pollutant
Not available.

Snow Depth

Station Depth Elevation

Earthquake Activity

City Distance Mag. Time & Date
Minimum magnitude displayed is 2.5.

Coastal Water Temperatures

Place Temperature

Stations

Nearby Weather Stations

Station Location Temp. Windchill Dew Point Humidity Wind Precip. Elev Updated Type
                   

Watches & Warnings

Winter Weather Advisory
Issued: 11:48 AM CST Feb. 22, 2018 – National Weather Service

... Winter Weather Advisory remains in effect until midnight CST
tonight...

* what... mixed precipitation transitioning to mainly snow north
and freezing rain or freezing drizzle central and south.
Additional snow accumulations of up to two inches north and ice
accumulations of up to one tenth of an inch farther south are
expected.

* Where... much of central Iowa.

* When... until midnight CST tonight.

* Additional details... the ice will result in difficult travel
conditions. Be prepared for reduced visibilities at times.

Precautionary/preparedness actions...

A Winter Weather Advisory means that periods of snow, sleet or
freezing rain will cause travel difficulties. Be prepared for
slippery roads and limited visibilities, and use caution while
driving. The latest Road conditions for the state you are calling
from can be obtained by calling 5 1 1.